Terminal Aerodrome Forecast
Issued by NWS St Louis, MO

Home | Current Version | Previous Version | Graphics & Text | Print | Product List | Glossary On
Versions: 1 2 3 4 5 6 7 8 9 10 11 12 13 14 15 16 17 18 19 20 21 22 23 24 25
000
FTUS43 KLSX 271724
TAFSTL
TAF
KSTL 271724Z 2718/2824 27006KT P6SM VCSH OVC025
     FM280000 33004KT P6SM BKN045
     FM280700 01005KT 5SM BR BKN020
     FM281600 36008KT P6SM BKN035
     FM281800 01009KT P6SM SCT060=

USA.gov is the U.S. government's official web portal to all federal, state and local government web resources and services.